Thompson, Ohio
Current Conditions -  °F | °C
As of 12:53 PM on Wednesday 26 Nov 2014 (Local Time) from KHZY Reporting Station
Overcast Overcast  
Wind Chill: 30°   Ceiling: 2600
Heat Index: 36°   Visibility: 10mi
Dew Point: 26°   Wind: 7mph
Humidity: 67%   Direction: NA
Pressure: 30.08"   Gusts: NA
Location:  41.69°N, 81.05°W
Report Text: KHZY 261753Z AUTO VRB06KT 10SM OVC026 02/M03 A3008 RMK AO2 SLP193 T00221033 10022 20000 58012
Loading
Personal Weather Stations






























Interactive Weather Map New forecast layout! Learn more

10-Day Weather Forecast

Advertisements
Track Severe Weather on mobile